Aérodrome :
LOGIN :

S'inscrire | Disclaimer

   EN    FR    IT 

 










Légende :    VFR   VFR Marginal   IFR   IFR Intensif   IFR Très Intensif
Visi : 
Plafond : 
>= 8 km
>= 3000ft
5 à 8 km
1000 à 3000 ft
1500m à 5 km
500 à 1000 ft
800 à 1500m
200 à 500 ft
< 800m
< 200 ft
Symboles :   Orages  Brouillard  Fortes neiges  Fortes précipitations  Vent > 20 kt
SIGMETs :   Divers  Orages  Givrage  Turbulence  Onde Orograph.  Cendres Volcan.






- Altitude de l'aérodrome : 325 ft
- Code IATA : BES


LFRB - Brest

DERNIER METAR :
  • 051700Z AUTO 32019KT 9999 SCT029/// BKN036/// BKN042/// ///TCU 07/03 Q0991 TEMPO 33020G40KT 3000 SHRA BKN013 BKN015CB

METARs EXPIRÉS :
  • 051630Z AUTO 33017G31KT 9999 BKN028/// BKN035/// OVC041/// ///TCU 08/03 Q0991 TEMPO 3000 SHRA BKN013 BKN015CB
  • 051600Z AUTO 32017G27KT 9999 -RA FEW021/// BKN029/// BKN038/// ///TCU 08/05 Q0991 TEMPO 33020G40KT 3000 SHRA BKN013 BKN015CB
  • 051530Z AUTO 31018KT 9999 SCT024/// BKN030/// BKN038/// ///CB 09/05 Q0990 TEMPO 33020G40KT 3000 SHRA BKN013 BKN015CB
  • 051500Z AUTO 31018G31KT 9999 SCT025/// BKN032/// BKN038/// ///CB 09/05 Q0990 TEMPO 3000 SHRA BKN013 BKN015CB
  • 051430Z AUTO 31019KT 9999 BKN025/// BKN037/// BKN054/// ///TCU 08/05 Q0990 TEMPO 33020G40KT 3000 SHRA BKN013 BKN015CB

TAF TAF LFRB
Valide du 05 à 12h jusqu'au 06 à 18h UTC


051100Z 0512/0618 33015G30KT 9999 BKN020
TEMPO 0512/0524 33020G40KT 3000 SHRA BKN013 BKN015CB
BECMG 0604/0606 36013KT
BECMG 0616/0618 34005KT
ATIS : +33 2 98 32 02 71



MET'MAP, la Météo Aéronautique d'un coup d'oeil ! - Copyright ORBIFLY Décembre 2007 - Disclaimer

ORBIFLY MET'MAP TEAM :

Programmation & Développement : Alexandra Zaïnal
Sur une idée originale de : Baudouin d'Aumeries
Assistance à la programmation : Marc-Olivier Méhu
Soutien technique & logistique : Manuel Goepfert

Contact : metmap@orbifly.com




SOURCES & CREDITS :

   NOAA